Astatula, FL

10:34 PM EDT on October 18, 2019 (GMT -0400)
Tavares | | Change Station
Active Advisory: Flood Warning

Elev 85 ft 28.73 °N, 81.73 °W | Updated 10 seconds ago

Rain
Rain
72.7 °F
Feels Like 71 °F
N
0
Wind Variable Wind from NNE
Gusts 0.0 mph

Today
High -- | Low -- °F
--% Chance of Precip.
Yesterday
High -- | Low -- °F
Precip. -- in
Pressure 29.91 in
Visibility 10.0 miles
Clouds Clear
Heat Index 71 °F
Dew Point 68 °F
Humidity 86%
Rainfall 0.00 in
Snow Depth Not available.
7:29 AM 6:54 PM
Waning Gibbous, 75% visible
METAR KLEE 190153Z AUTO 05005KT 10SM -RA CLR 23/19 A2991 RMK AO2 RAB40 SLP126 P0000 T02330194
Pressure 29.91 in
Visibility 10.0 miles
Clouds Clear
Heat Index 71 °F
Dew Point 68 °F
Humidity 86%
Rainfall 0.00 in
Snow Depth Not available.
7:29 AM 6:54 PM
Waning Gibbous, 75% visible
METAR KLEE 190153Z AUTO 05005KT 10SM -RA CLR 23/19 A2991 RMK AO2 RAB40 SLP126 P0000 T02330194

Get Your Daily Forecast Email!

Thanks for signing up!

Be on the lookout for a verification email in your inbox.

You'll start receiving severe weather alerts in your inbox..

×

10-Day Weather Forecast

Almanac

Astronomy

Oct. 18, 2019 Rise Set
Actual Time
Civil Twilight
Nautical Twilight
Astronomical Twilight
Moon
Length of Visible Light
Length of Day
Tomorrow will be .
, % of the Moon is Illuminated

Today's Extremes

State Highs State Lows

Community

WunderPhotos

Category 6

Welcome to Category 6. This is the collective home for Weather Underground's featured writeups by Dr. Jeff Masters (right), Bob Henson (left), Chris Burt, and other regular contributors.

Nearby

Air Quality

  Air Quality AQ Index Pollutant
Not available.

Snow Depth

Station Depth Elevation

Earthquake Activity

City Distance Mag. Time & Date
Minimum magnitude displayed is 2.5.

Coastal Water Temperatures

Place Temperature

Stations

Nearby Weather Stations

Station Location Temp. Windchill Dew Point Humidity Wind Precip. Elev Updated Type
                   

Watches & Warnings

Flood Warning
Issued: 9:40 AM EDT Oct. 18, 2019 – National Weather Service

The Flood Warning continues for
the St Johns River near Astor.
* Minor flooding is occurring and minor flooding is forecast.

*At 2.3 feet, minor flooding of low lying streets and yards north of
Fox Road on Lake County side of Astor, and from River Road northward
on Volusia side of river. Water begins to cover docks at south moon
Fish Camp.



             Fld observed forecast 7 am EST/8 am EDT
location stg stg day time Sat sun Mon Tue Wed

St. Johns River
Astor 2.3 2.4 Fri 08 am 2.4 2.4 2.3 2.2 2.2



Lat... Lon 2908 8150 2932 8169 2935 8157 2910 8142



Kelly